Time;durP1;ratioP1;P1;durP2;ratioP2;P2;SDS_P1;SDS_P2;PMS_P1;PMS_P2;Temp;Humidity;BMP_temperature;BMP_pressure;BME280_temperature;BME280_humidity;BME280_pressure;Samples;Min_cycle;Max_cycle;Signal;HPM_P1;HPM_P2
2022/08/14 00:01:22;;;;;;;0.50;0.50;;;21.10;99.90;;;;;;5077975;28;20197;-67
2022/08/14 00:04:11;;;;;;;0.40;0.40;;;21.00;99.90;;;;;;5077840;28;20218;-67
2022/08/14 00:07:19;;;;;;;0.50;0.50;;;21.00;99.90;;;;;;5077014;28;20330;-69
2022/08/14 00:10:11;;;;;;;0.40;0.40;;;21.00;99.90;;;;;;5077506;28;20759;-69
2022/08/14 00:13:23;;;;;;;0.40;0.40;;;20.90;99.90;;;;;;5075364;28;20240;-67
2022/08/14 00:16:13;;;;;;;0.40;0.40;;;21.00;99.90;;;;;;5074693;28;20646;-69
2022/08/14 00:19:21;;;;;;;0.50;0.50;;;20.90;99.90;;;;;;5074100;28;20283;-68
2022/08/14 00:22:11;;;;;;;0.40;0.40;;;21.00;99.90;;;;;;5074295;28;20204;-69
2022/08/14 00:25:19;;;;;;;0.50;0.50;;;20.70;99.90;;;;;;5073612;28;20203;-67
2022/08/14 00:28:09;;;;;;;0.70;0.70;;;20.70;99.90;;;;;;5074505;28;20197;-68
2022/08/14 00:31:05;;;;;;;0.40;0.40;;;20.80;99.90;;;;;;5072323;28;20246;-68
2022/08/14 00:33:53;;;;;;;0.50;0.50;;;21.20;99.90;;;;;;5072289;28;20606;-66
2022/08/14 00:36:46;;;;;;;0.40;0.40;;;20.70;99.90;;;;;;5072526;28;20273;-67
2022/08/14 00:39:36;;;;;;;0.40;0.40;;;20.80;99.90;;;;;;5072337;28;20287;-66
2022/08/14 00:42:24;;;;;;;0.40;0.40;;;20.80;99.90;;;;;;5072707;28;20211;-68
2022/08/14 00:45:32;;;;;;;0.40;0.40;;;20.80;99.90;;;;;;5072162;28;20353;-67
2022/08/14 00:48:22;;;;;;;0.40;0.40;;;20.90;99.90;;;;;;5072849;28;20196;-68
2022/08/14 00:51:24;;;;;;;0.40;0.40;;;20.90;99.90;;;;;;5073159;28;20255;-67
2022/08/14 00:54:25;;;;;;;0.40;0.40;;;21.00;99.90;;;;;;5073529;28;20596;-69
2022/08/14 00:57:14;;;;;;;0.40;0.40;;;21.00;99.90;;;;;;5073235;28;20223;-68
2022/08/14 01:00:09;;;;;;;0.40;0.40;;;21.10;99.90;;;;;;5073312;28;20200;-67
2022/08/14 01:03:19;;;;;;;0.40;0.40;;;21.00;99.90;;;;;;5071958;28;20350;-68
2022/08/14 01:06:12;;;;;;;0.40;0.40;;;21.00;99.90;;;;;;5072636;28;20228;-66
2022/08/14 01:09:03;;;;;;;0.40;0.40;;;20.90;99.90;;;;;;5072750;28;20212;-67
2022/08/14 01:11:53;;;;;;;0.40;0.40;;;20.90;99.90;;;;;;5072006;28;20579;-67
2022/08/14 01:14:51;;;;;;;0.40;0.40;;;20.90;99.90;;;;;;5071358;28;20228;-67
2022/08/14 01:23:55;;;;;;;0.40;0.40;;;20.90;99.90;;;;;;5072321;28;20603;-67
2022/08/14 01:26:45;;;;;;;0.40;0.40;;;20.80;99.90;;;;;;5072229;28;20216;-67
2022/08/14 01:29:37;;;;;;;0.40;0.40;;;20.80;99.90;;;;;;5071794;28;20208;-66
2022/08/14 01:32:46;;;;;;;0.40;0.40;;;20.70;99.90;;;;;;5072676;28;20277;-68
2022/08/14 01:35:39;;;;;;;0.40;0.40;;;20.70;99.90;;;;;;5072202;28;20220;-67
2022/08/14 01:38:49;;;;;;;0.40;0.40;;;20.60;99.90;;;;;;5071961;28;20330;-66
2022/08/14 01:41:39;;;;;;;0.40;0.40;;;20.50;99.90;;;;;;5072340;28;20204;-67
2022/08/14 01:44:30;;;;;;;0.40;0.40;;;20.50;99.90;;;;;;5072018;28;20713;-67
2022/08/14 01:47:21;;;;;;;0.40;0.40;;;20.50;99.90;;;;;;5071731;28;20221;-70
2022/08/14 01:50:10;;;;;;;0.40;0.40;;;20.60;99.90;;;;;;5074686;28;20196;-67
2022/08/14 01:53:01;;;;;;;0.40;0.40;;;20.40;99.90;;;;;;5094443;28;20207;-67
2022/08/14 01:55:50;;;;;;;0.40;0.40;;;20.40;99.90;;;;;;5091713;28;20215;-67
2022/08/14 01:58:44;;;;;;;0.40;0.40;;;20.40;99.90;;;;;;5092208;28;20763;-68
2022/08/14 02:01:44;;;;;;;0.40;0.40;;;20.30;99.90;;;;;;5091362;28;20192;-66
2022/08/14 02:04:46;;;;;;;0.40;0.40;;;20.30;99.90;;;;;;5090263;28;20202;-68
2022/08/14 02:07:44;;;;;;;0.40;0.40;;;20.20;99.90;;;;;;5106172;22;20232;-69
2022/08/14 02:11:15;;;;;;;0.40;0.40;;;20.20;99.90;;;;;;5073053;28;20283;-68
2022/08/14 02:14:07;;;;;;;0.40;0.40;;;20.20;99.90;;;;;;5073232;28;20591;-68
2022/08/14 02:16:56;;;;;;;0.40;0.40;;;20.20;99.90;;;;;;5073796;28;20264;-69
2022/08/14 02:19:44;;;;;;;0.40;0.40;;;20.20;99.90;;;;;;5073254;28;20216;-68
2022/08/14 02:22:34;;;;;;;0.40;0.40;;;20.30;99.90;;;;;;5073684;28;20201;-68
2022/08/14 02:25:34;;;;;;;0.40;0.40;;;20.30;99.90;;;;;;5073906;28;20223;-68
2022/08/14 02:28:23;;;;;;;0.40;0.40;;;20.40;99.90;;;;;;5076901;28;20765;-68
2022/08/14 02:31:35;;;;;;;0.40;0.40;;;20.40;99.90;;;;;;5076272;28;20229;-68
2022/08/14 02:34:33;;;;;;;0.40;0.40;;;20.50;99.90;;;;;;5076910;28;20205;-68
2022/08/14 02:37:23;;;;;;;0.40;0.40;;;20.60;99.90;;;;;;5076387;28;20294;-68
2022/08/14 02:40:32;;;;;;;0.40;0.40;;;20.60;99.90;;;;;;5076201;28;20310;-68
2022/08/14 02:43:23;;;;;;;0.40;0.40;;;20.70;99.90;;;;;;5076083;28;20303;-68
2022/08/14 02:46:23;;;;;;;0.40;0.40;;;20.70;99.90;;;;;;5076364;28;20262;-68
2022/08/14 02:49:27;;;;;;;0.40;0.40;;;20.70;99.90;;;;;;5075950;28;20200;-69
2022/08/14 02:52:21;;;;;;;0.40;0.40;;;20.70;99.90;;;;;;5076215;28;20242;-68
2022/08/14 02:55:31;;;;;;;0.40;0.40;;;20.80;99.90;;;;;;5076297;28;20246;-68
2022/08/14 02:58:22;;;;;;;0.40;0.40;;;20.80;99.90;;;;;;5076015;28;20220;-68
2022/08/14 03:01:19;;;;;;;0.40;0.40;;;20.80;99.90;;;;;;5075528;28;20622;-69
2022/08/14 03:04:11;;;;;;;0.40;0.40;;;20.80;99.90;;;;;;5076172;28;20193;-68
2022/08/14 03:07:01;;;;;;;0.40;0.40;;;20.80;99.90;;;;;;5075733;28;20231;-68
2022/08/14 03:09:55;;;;;;;0.40;0.40;;;21.60;99.90;;;;;;5075325;28;20386;-69
2022/08/14 03:13:04;;;;;;;0.40;0.40;;;20.80;99.90;;;;;;5075925;28;20696;-68
2022/08/14 03:16:00;;;;;;;0.40;0.40;;;20.80;99.90;;;;;;5075541;28;20672;-68
2022/08/14 03:18:57;;;;;;;0.40;0.40;;;20.80;99.90;;;;;;5074922;28;20216;-68
2022/08/14 03:21:46;;;;;;;0.40;0.40;;;20.80;99.90;;;;;;5075439;28;20192;-68
2022/08/14 03:24:41;;;;;;;0.40;0.40;;;20.80;99.90;;;;;;5074980;28;20201;-68
2022/08/14 03:27:30;;;;;;;0.40;0.40;;;20.80;99.90;;;;;;5075338;28;20295;-68
2022/08/14 03:30:37;;;;;;;0.40;0.40;;;20.80;99.90;;;;;;5075939;28;20202;-68
2022/08/14 03:33:28;;;;;;;0.40;0.40;;;20.90;99.90;;;;;;5076114;28;20191;-68
2022/08/14 03:36:29;;;;;;;0.40;0.40;;;20.80;99.90;;;;;;5076228;28;20196;-68
2022/08/14 03:39:37;;;;;;;0.40;0.40;;;20.80;99.90;;;;;;5076040;28;20283;-68
2022/08/14 03:42:29;;;;;;;0.40;0.40;;;20.80;99.90;;;;;;5075568;28;20205;-68
2022/08/14 03:45:23;;;;;;;0.40;0.40;;;20.80;99.90;;;;;;5075502;28;20204;-68
2022/08/14 03:48:22;;;;;;;0.40;0.40;;;20.80;99.90;;;;;;5074869;28;20242;-68
2022/08/14 03:51:18;;;;;;;0.60;0.60;;;20.80;99.90;;;;;;5074772;28;20200;-68
2022/08/14 03:54:08;;;;;;;0.40;0.40;;;20.80;99.90;;;;;;5074410;28;20212;-68
2022/08/14 03:57:03;;;;;;;0.40;0.40;;;20.80;99.90;;;;;;5074721;28;20659;-68
2022/08/14 03:59:52;;;;;;;0.40;0.40;;;20.80;99.90;;;;;;5074369;28;20197;-68
2022/08/14 04:02:41;;;;;;;0.40;0.40;;;20.80;99.90;;;;;;5074221;28;20200;-68
2022/08/14 04:05:37;;;;;;;0.40;0.40;;;20.80;99.90;;;;;;5073463;28;20205;-68
2022/08/14 04:08:36;;;;;;;0.40;0.40;;;20.80;99.90;;;;;;5073159;28;20247;-68
2022/08/14 04:11:24;;;;;;;0.40;0.40;;;20.80;99.90;;;;;;5074936;28;20200;-68
2022/08/14 04:14:13;;;;;;;0.40;0.40;;;20.80;99.90;;;;;;5074237;28;20228;-68
2022/08/14 04:17:04;;;;;;;0.40;0.40;;;20.70;99.90;;;;;;5074411;28;20223;-68
2022/08/14 04:20:02;;;;;;;0.40;0.40;;;20.80;99.90;;;;;;5074592;28;20280;-68
2022/08/14 04:22:51;;;;;;;0.40;0.40;;;20.80;99.90;;;;;;5074654;28;20580;-68
2022/08/14 04:25:43;;;;;;;0.40;0.40;;;20.80;99.90;;;;;;5074804;28;20226;-68
2022/08/14 04:28:35;;;;;;;0.40;0.40;;;20.80;99.90;;;;;;5075283;28;20217;-68
2022/08/14 04:31:43;;;;;;;0.40;0.40;;;20.80;99.90;;;;;;5075721;28;20200;-68
2022/08/14 04:34:53;;;;;;;0.40;0.40;;;20.90;99.90;;;;;;5074264;28;20681;-68
2022/08/14 04:44:01;;;;;;;0.40;0.40;;;21.00;99.90;;;;;;5073971;28;20665;-68
2022/08/14 04:49:58;;;;;;;0.40;0.40;;;21.10;99.90;;;;;;5072292;28;20198;-68
2022/08/14 04:52:50;;;;;;;0.40;0.40;;;21.10;99.90;;;;;;5074403;28;20197;-69
2022/08/14 04:55:47;;;;;;;0.40;0.40;;;21.20;99.90;;;;;;5074311;28;20219;-68
2022/08/14 04:58:39;;;;;;;0.40;0.40;;;21.20;99.90;;;;;;5073595;28;20233;-68
2022/08/14 05:01:27;;;;;;;0.40;0.40;;;21.30;99.90;;;;;;5073457;28;20226;-69
2022/08/14 05:04:26;;;;;;;0.40;0.40;;;21.40;99.90;;;;;;5074765;28;20684;-69
2022/08/14 05:07:16;;;;;;;0.40;0.40;;;21.40;99.90;;;;;;5075850;28;20235;-68
2022/08/14 05:10:05;;;;;;;0.40;0.40;;;19.60;99.90;;;;;;5086044;28;20207;-69
2022/08/14 05:13:00;;;;;;;0.40;0.40;;;21.50;99.90;;;;;;5092731;28;20204;-68
2022/08/14 05:16:09;;;;;;;0.40;0.40;;;21.50;99.90;;;;;;5093735;28;20637;-68
2022/08/14 05:18:58;;;;;;;0.40;0.40;;;21.60;99.90;;;;;;5093125;28;20223;-68
2022/08/14 05:22:06;;;;;;;0.40;0.40;;;21.60;99.90;;;;;;5090582;28;20633;-68
2022/08/14 05:25:07;;;;;;;0.40;0.40;;;21.70;99.90;;;;;;5074543;28;20201;-69
2022/08/14 05:27:59;;;;;;;0.40;0.40;;;21.80;99.90;;;;;;5074241;28;20303;-68
2022/08/14 05:30:49;;;;;;;0.40;0.40;;;21.90;99.90;;;;;;5073249;28;20213;-68
2022/08/14 05:33:39;;;;;;;0.40;0.40;;;22.10;99.90;;;;;;5073836;28;20201;-70
2022/08/14 05:36:27;;;;;;;0.40;0.40;;;22.10;99.90;;;;;;5072756;28;20201;-69
2022/08/14 05:39:17;;;;;;;0.40;0.40;;;22.20;99.90;;;;;;5072215;28;20362;-69
2022/08/14 05:42:07;;;;;;;0.40;0.40;;;22.30;99.90;;;;;;5073190;28;20200;-69
2022/08/14 05:45:09;;;;;;;0.40;0.40;;;22.50;99.90;;;;;;5072255;28;20196;-70
2022/08/14 05:48:00;;;;;;;0.40;0.40;;;22.50;99.90;;;;;;5072734;28;20216;-69
2022/08/14 05:50:48;;;;;;;0.40;0.40;;;22.60;99.90;;;;;;5071766;28;20196;-69
2022/08/14 05:53:37;;;;;;;0.40;0.40;;;22.80;99.90;;;;;;5072524;28;20207;-69
2022/08/14 05:56:30;;;;;;;0.40;0.40;;;22.80;99.90;;;;;;5072698;28;20205;-69
2022/08/14 05:59:20;;;;;;;0.40;0.40;;;22.80;99.90;;;;;;5072453;28;20217;-69
2022/08/14 06:02:26;;;;;;;0.40;0.40;;;22.90;99.90;;;;;;5076489;28;20207;-69
2022/08/14 06:05:16;;;;;;;0.40;0.40;;;23.10;99.90;;;;;;5075386;28;20200;-69
2022/08/14 06:08:15;;;;;;;0.40;0.40;;;23.20;99.90;;;;;;5075940;28;20221;-69
2022/08/14 06:11:23;;;;;;;0.40;0.40;;;23.20;99.90;;;;;;5075868;28;20307;-69
2022/08/14 06:14:19;;;;;;;0.40;0.40;;;23.40;99.90;;;;;;5075760;28;20779;-69
2022/08/14 06:17:11;;;;;;;0.40;0.40;;;23.60;99.90;;;;;;5075214;28;20224;-69
2022/08/14 06:20:14;;;;;;;0.40;0.40;;;23.80;99.90;;;;;;5075512;28;20692;-69
2022/08/14 06:23:02;;;;;;;0.40;0.40;;;23.90;99.90;;;;;;5076166;28;20615;-69
2022/08/14 06:25:50;;;;;;;0.40;0.40;;;24.10;99.90;;;;;;5075389;28;20570;-68
2022/08/14 06:28:40;;;;;;;0.40;0.40;;;24.10;99.90;;;;;;5076060;28;20221;-69
2022/08/14 06:31:34;;;;;;;0.93;0.90;;;24.20;99.90;;;;;;5076002;28;20193;-69
2022/08/14 06:34:22;;;;;;;1.80;1.35;;;24.30;99.90;;;;;;5075890;28;20211;-69
2022/08/14 06:37:39;;;;;;;0.40;0.40;;;24.20;99.90;;;;;;5075194;28;20322;-69
2022/08/14 06:40:30;;;;;;;0.40;0.40;;;24.20;99.90;;;;;;5074651;28;20610;-69
2022/08/14 06:43:22;;;;;;;0.40;0.40;;;24.40;99.90;;;;;;5076094;28;20689;-69
2022/08/14 06:46:17;;;;;;;0.40;0.40;;;24.50;99.90;;;;;;5075656;28;20275;-69
2022/08/14 06:49:25;;;;;;;0.40;0.40;;;24.60;99.90;;;;;;5074878;28;20199;-69
2022/08/14 06:52:13;;;;;;;0.40;0.40;;;24.70;99.90;;;;;;5076067;28;20205;-69
2022/08/14 06:55:04;;;;;;;0.40;0.40;;;24.70;99.90;;;;;;5076615;28;20197;-69
2022/08/14 06:57:55;;;;;;;0.40;0.40;;;24.90;99.90;;;;;;5077819;28;20252;-69
2022/08/14 07:05:45;;;;;;;0.40;0.40;;;24.90;99.90;;;;;;5076901;28;20219;-69
2022/08/14 07:07:12;;;;;;;0.60;0.60;;;25.20;99.90;;;;;;5073587;28;20258;-69
2022/08/14 07:10:00;;;;;;;2.80;2.60;;;25.30;99.90;;;;;;5075080;28;20716;-69
2022/08/14 07:12:48;;;;;;;0.40;0.40;;;25.30;99.90;;;;;;5074805;28;20204;-69
2022/08/14 07:15:51;;;;;;;0.40;0.40;;;25.40;99.90;;;;;;5075365;28;20197;-70
2022/08/14 07:18:42;;;;;;;0.40;0.40;;;25.30;99.90;;;;;;5074722;28;20256;-70
2022/08/14 07:21:31;;;;;;;0.40;0.40;;;27.40;99.90;;;;;;5075482;28;20758;-70
2022/08/14 07:24:22;;;;;;;0.40;0.40;;;25.20;99.90;;;;;;5075751;28;20208;-70
2022/08/14 07:27:18;;;;;;;0.40;0.40;;;25.10;99.90;;;;;;5074704;28;20303;-70
2022/08/14 07:30:10;;;;;;;0.40;0.40;;;25.00;99.90;;;;;;5077409;28;20196;-70
2022/08/14 07:33:19;;;;;;;0.80;0.80;;;24.90;99.90;;;;;;5078553;28;20249;-70
2022/08/14 07:36:19;;;;;;;0.40;0.40;;;24.80;99.90;;;;;;5078301;28;20697;-70
2022/08/14 07:39:17;;;;;;;0.40;0.40;;;24.90;99.90;;;;;;5074369;28;20248;-69
2022/08/14 07:42:16;;;;;;;0.40;0.40;;;25.00;99.90;;;;;;5075150;28;20201;-70
2022/08/14 07:45:10;;;;;;;0.40;0.40;;;25.00;99.90;;;;;;5075546;28;20647;-70
2022/08/14 07:47:58;;;;;;;0.40;0.40;;;25.10;99.90;;;;;;5081925;28;20212;-70
2022/08/14 07:50:49;;;;;;;0.40;0.40;;;25.20;99.90;;;;;;5085841;28;20200;-69
2022/08/14 07:53:39;;;;;;;0.40;0.40;;;25.30;99.90;;;;;;5077837;28;20280;-69
2022/08/14 07:56:28;;;;;;;0.40;0.40;;;25.40;99.90;;;;;;5074246;28;20205;-69
2022/08/14 07:59:37;;;;;;;0.40;0.40;;;25.50;99.90;;;;;;5073681;28;20223;-69
2022/08/14 08:02:31;;;;;;;0.40;0.40;;;25.70;99.90;;;;;;5073798;28;20197;-69
2022/08/14 08:05:23;;;;;;;0.40;0.40;;;25.80;99.90;;;;;;5073892;28;20687;-69
2022/08/14 08:08:11;;;;;;;0.40;0.40;;;25.90;99.90;;;;;;5087366;22;20225;-65
2022/08/14 08:11:15;;;;;;;2.72;1.05;;;26.00;99.90;;;;;;5050920;28;20676;-65
2022/08/14 08:14:06;;;;;;;0.40;0.40;;;26.10;99.90;;;;;;5051275;28;20197;-66
2022/08/14 08:17:05;;;;;;;0.40;0.40;;;26.20;99.90;;;;;;5051505;28;20224;-65
2022/08/14 08:19:53;;;;;;;0.50;0.50;;;26.40;99.90;;;;;;5051651;28;20302;-65
2022/08/14 08:22:42;;;;;;;0.40;0.40;;;26.60;99.90;;;;;;5051430;28;20258;-63
2022/08/14 08:25:41;;;;;;;0.40;0.40;;;26.70;99.90;;;;;;5050631;28;20229;-65
2022/08/14 08:28:30;;;;;;;0.40;0.40;;;26.80;99.90;;;;;;5052202;28;20221;-64
2022/08/14 08:31:21;;;;;;;0.50;0.50;;;26.70;99.90;;;;;;5051663;28;20198;-64
2022/08/14 08:34:11;;;;;;;0.40;0.40;;;26.70;99.90;;;;;;5051748;28;20198;-64
2022/08/14 08:37:05;;;;;;;0.40;0.40;;;26.80;99.90;;;;;;5051860;28;20203;-64
2022/08/14 08:39:54;;;;;;;0.40;0.40;;;26.80;99.90;;;;;;5051418;28;20762;-64
2022/08/14 08:42:51;;;;;;;0.40;0.40;;;26.80;99.90;;;;;;5052307;28;20243;-64
2022/08/14 08:45:41;;;;;;;0.40;0.40;;;27.00;99.90;;;;;;5052380;28;20589;-64
2022/08/14 08:48:31;;;;;;;1.83;1.73;;;26.90;99.90;;;;;;5052852;28;20246;-64
2022/08/14 08:51:30;;;;;;;1.95;1.85;;;27.00;99.90;;;;;;5051311;28;20812;-64
2022/08/14 08:54:21;;;;;;;0.40;0.40;;;27.00;99.90;;;;;;5052092;28;20208;-64
2022/08/14 08:57:17;;;;;;;0.40;0.40;;;27.10;99.90;;;;;;5053086;28;20213;-64
2022/08/14 09:00:17;;;;;;;0.40;0.40;;;27.20;99.90;;;;;;5052429;28;20217;-64
2022/08/14 09:03:17;;;;;;;0.40;0.40;;;27.30;99.90;;;;;;5051590;28;20338;-64
2022/08/14 09:06:07;;;;;;;0.40;0.40;;;27.40;99.90;;;;;;5051582;28;20223;-65
2022/08/14 09:09:21;;;;;;;0.60;0.60;;;27.40;99.90;;;;;;5070490;28;20377;-65
2022/08/14 09:12:10;;;;;;;0.40;0.40;;;27.50;99.90;;;;;;5071904;28;20208;-65
2022/08/14 09:15:04;;;;;;;0.47;0.47;;;27.60;99.90;;;;;;5071337;28;20197;-62
2022/08/14 09:18:00;;;;;;;0.40;0.40;;;27.70;99.90;;;;;;5070758;28;20221;-62
2022/08/14 09:20:52;;;;;;;0.85;0.85;;;27.90;99.90;;;;;;5071252;28;20217;-62
2022/08/14 09:23:46;;;;;;;0.40;0.40;;;27.80;99.90;;;;;;5071361;28;20196;-63
2022/08/14 09:26:56;;;;;;;0.40;0.40;;;27.80;99.90;;;;;;5071472;28;20326;-62
2022/08/14 09:29:44;;;;;;;0.40;0.40;;;28.00;99.90;;;;;;5070942;28;20201;-62
2022/08/14 09:32:54;;;;;;;0.40;0.40;;;28.00;99.90;;;;;;5071177;28;20251;-63
2022/08/14 09:36:14;;;;;;;0.40;0.40;;;28.00;99.90;;;;;;5073109;28;20254;-63
2022/08/14 09:39:19;;;;;;;0.40;0.40;;;28.10;99.90;;;;;;5075049;28;20708;-63
2022/08/14 09:42:28;;;;;;;0.40;0.40;;;28.10;99.90;;;;;;5075115;28;20204;-63
2022/08/14 09:45:28;;;;;;;0.50;0.50;;;28.10;99.90;;;;;;5074569;28;20205;-63
2022/08/14 09:48:27;;;;;;;0.40;0.40;;;28.00;99.90;;;;;;5074478;28;20302;-63
2022/08/14 09:51:23;;;;;;;0.40;0.40;;;28.10;99.90;;;;;;5074553;28;20322;-63
2022/08/14 09:54:12;;;;;;;0.40;0.40;;;28.20;99.90;;;;;;5074546;28;20201;-63
2022/08/14 09:57:12;;;;;;;0.40;0.40;;;28.20;99.90;;;;;;5074721;28;20207;-63
2022/08/14 10:00:13;;;;;;;0.40;0.40;;;28.20;99.90;;;;;;5074279;28;20501;-63
2022/08/14 10:03:30;;;;;;;0.40;0.40;;;28.20;99.90;;;;;;5074664;28;20205;-63
2022/08/14 10:06:23;;;;;;;0.40;0.40;;;28.20;99.90;;;;;;5074442;28;20781;-63
2022/08/14 10:09:15;;;;;;;0.50;0.50;;;28.30;99.90;;;;;;5074177;28;20228;-63
2022/08/14 10:12:05;;;;;;;1.80;0.98;;;28.50;99.90;;;;;;5074383;28;20681;-63
2022/08/14 10:15:20;;;;;;;0.40;0.40;;;28.70;99.90;;;;;;5073712;28;20273;-63
2022/08/14 10:18:10;;;;;;;0.40;0.40;;;29.00;99.90;;;;;;5074168;28;20220;-63
2022/08/14 10:21:08;;;;;;;0.40;0.40;;;29.20;99.90;;;;;;5072266;28;20250;-63
2022/08/14 10:23:56;;;;;;;0.60;0.60;;;29.30;99.90;;;;;;5073591;28;20274;-63
2022/08/14 10:26:54;;;;;;;0.40;0.40;;;29.40;99.90;;;;;;5074051;28;20282;-63
2022/08/14 10:29:49;;;;;;;1.42;1.33;;;29.50;99.90;;;;;;5073731;28;20192;-63
2022/08/14 10:32:45;;;;;;;0.40;0.40;;;29.70;99.90;;;;;;5074112;28;20193;-63
2022/08/14 10:35:40;;;;;;;0.40;0.40;;;29.70;99.90;;;;;;5073803;28;20668;-63
2022/08/14 10:38:36;;;;;;;0.40;0.40;;;29.90;99.90;;;;;;5073952;28;20225;-63
2022/08/14 10:41:35;;;;;;;0.40;0.40;;;29.80;99.90;;;;;;5073584;28;20216;-63
2022/08/14 10:44:46;;;;;;;0.40;0.40;;;30.10;99.90;;;;;;5073728;28;20200;-63
2022/08/14 10:47:35;;;;;;;0.40;0.40;;;30.40;99.90;;;;;;5072629;28;20216;-63
2022/08/14 10:50:50;;;;;;;0.40;0.40;;;30.40;99.90;;;;;;5073626;28;20271;-64
2022/08/14 10:53:38;;;;;;;0.60;0.60;;;30.60;99.90;;;;;;5072405;28;20197;-64
2022/08/14 10:56:32;;;;;;;0.40;0.40;;;30.70;99.90;;;;;;5073514;28;20271;-63
2022/08/14 10:59:22;;;;;;;0.40;0.40;;;30.70;99.20;;;;;;5073256;28;20207;-63
2022/08/14 11:02:31;;;;;;;0.93;0.93;;;30.60;97.80;;;;;;5073385;28;20577;-63
2022/08/14 11:05:40;;;;;;;0.40;0.40;;;30.50;97.40;;;;;;5072311;28;20197;-63
2022/08/14 11:08:33;;;;;;;0.40;0.40;;;30.40;96.00;;;;;;5073113;28;20275;-63
2022/08/14 11:11:25;;;;;;;0.40;0.40;;;30.30;96.80;;;;;;5073119;28;20201;-63
2022/08/14 11:14:22;;;;;;;0.40;0.40;;;30.40;96.30;;;;;;5073168;28;20201;-63
2022/08/14 11:17:14;;;;;;;0.40;0.40;;;30.10;96.00;;;;;;5073238;28;20962;-63
2022/08/14 11:20:10;;;;;;;0.40;0.40;;;30.00;95.60;;;;;;5073076;28;20207;-63
2022/08/14 11:23:06;;;;;;;0.50;0.50;;;30.10;95.60;;;;;;5073084;28;20205;-63
2022/08/14 11:25:59;;;;;;;1.30;1.25;;;30.30;95.70;;;;;;5073217;28;20204;-64
2022/08/14 11:28:49;;;;;;;0.40;0.40;;;30.40;95.20;;;;;;5073019;28;20347;-64
2022/08/14 11:31:38;;;;;;;0.40;0.40;;;30.70;95.20;;;;;;5073098;28;20189;-64
2022/08/14 11:34:28;;;;;;;0.40;0.40;;;30.80;94.10;;;;;;5072398;28;20197;-63
2022/08/14 11:37:21;;;;;;;0.40;0.40;;;31.00;95.00;;;;;;5072818;28;20299;-63
2022/08/14 11:40:28;;;;;;;0.40;0.40;;;31.20;93.70;;;;;;5072286;28;20315;-63
2022/08/14 11:43:18;;;;;;;0.50;0.50;;;31.40;93.90;;;;;;5073397;28;20196;-63
2022/08/14 11:46:16;;;;;;;0.40;0.40;;;31.50;93.60;;;;;;5072765;28;20197;-63
2022/08/14 11:49:26;;;;;;;0.50;0.50;;;31.60;93.60;;;;;;5072287;28;20279;-63
2022/08/14 11:52:22;;;;;;;0.40;0.40;;;31.70;93.00;;;;;;5072694;28;20580;-63
2022/08/14 11:55:13;;;;;;;0.40;0.40;;;31.60;90.50;;;;;;5072426;28;20275;-63
2022/08/14 11:58:04;;;;;;;0.40;0.40;;;31.60;90.20;;;;;;5072628;28;20220;-63
2022/08/14 12:00:57;;;;;;;0.40;0.40;;;31.60;90.30;;;;;;5072280;28;20193;-63
2022/08/14 12:03:48;;;;;;;0.40;0.40;;;31.60;90.80;;;;;;5073196;28;20576;-63
2022/08/14 12:06:49;;;;;;;0.40;0.40;;;31.70;90.40;;;;;;5072151;28;20589;-63
2022/08/14 12:09:39;;;;;;;0.95;0.95;;;31.70;90.20;;;;;;5072162;28;20209;-63
2022/08/14 12:12:31;;;;;;;0.77;0.50;;;31.70;89.90;;;;;;5072376;28;20200;-63
2022/08/14 12:15:32;;;;;;;0.40;0.40;;;31.60;86.70;;;;;;5071999;28;20204;-63
2022/08/14 12:18:33;;;;;;;0.40;0.40;;;31.50;87.70;;;;;;5071900;28;20716;-63
2022/08/14 12:21:24;;;;;;;0.40;0.40;;;31.40;88.50;;;;;;5072048;28;20677;-63
2022/08/14 12:24:16;;;;;;;0.40;0.40;;;31.20;88.20;;;;;;5072044;28;20208;-63
2022/08/14 12:27:34;;;;;;;0.40;0.40;;;31.30;86.70;;;;;;5071991;28;20235;-63
2022/08/14 12:30:32;;;;;;;0.40;0.40;;;31.40;85.60;;;;;;5072044;28;20200;-63
2022/08/14 12:33:31;;;;;;;0.60;0.50;;;31.60;85.60;;;;;;5071537;28;20204;-63
2022/08/14 12:36:22;;;;;;;0.40;0.40;;;31.90;85.40;;;;;;5072004;28;20246;-64
2022/08/14 12:39:19;;;;;;;0.40;0.40;;;32.10;84.40;;;;;;5071482;28;20226;-64
2022/08/14 12:42:09;;;;;;;0.40;0.40;;;32.10;83.40;;;;;;5071732;28;20216;-63
2022/08/14 12:45:19;;;;;;;0.40;0.40;;;31.80;83.80;;;;;;5071762;28;20334;-64
2022/08/14 12:48:08;;;;;;;0.40;0.40;;;31.30;83.50;;;;;;5071697;28;20303;-64
2022/08/14 12:51:18;;;;;;;0.40;0.40;;;32.40;82.90;;;;;;5072474;28;20339;-64
2022/08/14 12:54:14;;;;;;;1.05;0.98;;;33.30;80.00;;;;;;5071170;28;20196;-64
2022/08/14 12:57:17;;;;;;;0.65;0.65;;;34.20;77.30;;;;;;5070737;28;20751;-63
2022/08/14 13:00:11;;;;;;;0.40;0.40;;;35.10;74.20;;;;;;5071215;28;20203;-63
2022/08/14 13:03:23;;;;;;;0.40;0.40;;;36.30;72.10;;;;;;5071373;28;20227;-64
2022/08/14 13:06:16;;;;;;;0.40;0.40;;;38.10;68.30;;;;;;5071287;28;20208;-64
2022/08/14 13:09:06;;;;;;;0.50;0.50;;;39.70;63.40;;;;;;5071016;28;20229;-63
2022/08/14 13:12:03;;;;;;;0.40;0.40;;;40.80;58.40;;;;;;5070498;28;20196;-64
2022/08/14 13:15:13;;;;;;;0.85;0.85;;;39.70;55.40;;;;;;5070568;28;20254;-64
2022/08/14 13:18:03;;;;;;;0.50;0.50;;;39.90;55.40;;;;;;5070572;28;20217;-64
2022/08/14 13:20:54;;;;;;;6.22;2.92;;;41.40;53.40;;;;;;5070389;28;20197;-64
2022/08/14 13:23:48;;;;;;;0.60;0.60;;;43.00;49.20;;;;;;5071736;28;20227;-64
2022/08/14 13:26:37;;;;;;;0.40;0.40;;;44.50;47.00;;;;;;5070291;28;20235;-64
2022/08/14 13:29:29;;;;;;;0.50;0.50;;;45.80;45.10;;;;;;5071210;28;20258;-64
2022/08/14 13:32:19;;;;;;;0.50;0.50;;;46.60;42.80;;;;;;5071368;28;20301;-64
2022/08/14 13:35:08;;;;;;;0.50;0.50;;;47.30;41.10;;;;;;5070083;28;20674;-66
2022/08/14 13:38:03;;;;;;;0.50;0.50;;;47.70;39.90;;;;;;5070239;28;20360;-65
2022/08/14 13:40:55;;;;;;;0.50;0.50;;;48.00;37.90;;;;;;5070785;28;20207;-66
2022/08/14 13:43:45;;;;;;;0.50;0.50;;;48.10;37.70;;;;;;5071140;28;20226;-64
2022/08/14 13:46:48;;;;;;;0.50;0.50;;;48.30;36.60;;;;;;5071444;28;20606;-66
2022/08/14 13:49:38;;;;;;;0.50;0.50;;;48.10;37.20;;;;;;5070759;28;20208;-66
2022/08/14 13:52:52;;;;;;;0.50;0.50;;;47.90;36.80;;;;;;5069127;28;20550;-64
2022/08/14 13:55:43;;;;;;;0.60;0.60;;;48.00;37.30;;;;;;5070169;28;20201;-64
2022/08/14 13:58:39;;;;;;;0.68;0.68;;;48.40;37.30;;;;;;5070017;28;20222;-64
2022/08/14 14:01:35;;;;;;;0.60;0.60;;;48.20;36.10;;;;;;5070720;28;20209;-64
2022/08/14 14:04:38;;;;;;;0.70;0.70;;;48.10;36.60;;;;;;5070566;28;20203;-66
2022/08/14 14:07:30;;;;;;;0.60;0.60;;;47.80;36.10;;;;;;5097300;22;20230;-70
2022/08/14 14:10:21;;;;;;;0.60;0.60;;;48.00;36.80;;;;;;5111442;28;20203;-70
2022/08/14 14:13:17;;;;;;;0.60;0.60;;;47.60;37.20;;;;;;5110235;28;20201;-70
2022/08/14 14:16:10;;;;;;;0.55;0.55;;;46.80;37.50;;;;;;5111082;28;20277;-70
2022/08/14 14:19:03;;;;;;;0.50;0.50;;;46.50;37.60;;;;;;5111065;28;20292;-70
2022/08/14 14:21:59;;;;;;;0.60;0.60;;;46.20;38.10;;;;;;5112640;28;20203;-70
2022/08/14 14:24:51;;;;;;;0.50;0.50;;;44.90;39.40;;;;;;5114615;28;20660;-70
2022/08/14 14:27:40;;;;;;;0.65;0.65;;;42.10;42.10;;;;;;5114200;28;20691;-70
2022/08/14 14:30:30;;;;;;;0.50;0.50;;;41.90;42.60;;;;;;5114567;28;20210;-70
2022/08/14 14:33:45;;;;;;;0.50;0.50;;;41.00;43.70;;;;;;5115139;28;20227;-70
2022/08/14 14:36:35;;;;;;;0.50;0.50;;;40.40;44.10;;;;;;5115033;28;20203;-70
2022/08/14 14:39:29;;;;;;;0.40;0.40;;;40.20;44.80;;;;;;5113841;28;20216;-70
2022/08/14 14:42:25;;;;;;;1.17;1.08;;;39.40;44.30;;;;;;5114237;28;20199;-70
2022/08/14 14:45:22;;;;;;;1.08;1.08;;;41.10;43.80;;;;;;5114873;28;20203;-70
2022/08/14 14:48:12;;;;;;;0.50;0.50;;;41.60;42.60;;;;;;5114695;28;20599;-70
2022/08/14 14:51:03;;;;;;;0.50;0.50;;;41.60;42.70;;;;;;5114396;28;20206;-70
2022/08/14 14:53:52;;;;;;;0.40;0.40;;;40.80;42.40;;;;;;5113778;28;20248;-70
2022/08/14 14:56:42;;;;;;;0.40;0.40;;;39.50;43.20;;;;;;5113779;28;20252;-70
2022/08/14 14:59:39;;;;;;;0.40;0.40;;;39.70;43.40;;;;;;5114288;28;20210;-70
2022/08/14 15:02:33;;;;;;;0.45;0.45;;;41.20;42.60;;;;;;5112847;28;20196;-70
2022/08/14 15:05:24;;;;;;;0.50;0.50;;;43.40;39.90;;;;;;5113968;28;20330;-70
2022/08/14 15:08:15;;;;;;;0.50;0.50;;;46.10;37.60;;;;;;5113545;28;20228;-70
2022/08/14 15:11:24;;;;;;;3.75;3.40;;;46.50;38.40;;;;;;5114184;28;20209;-71
2022/08/14 15:14:19;;;;;;;0.50;0.50;;;47.70;36.50;;;;;;5114177;28;20191;-71
2022/08/14 15:17:32;;;;;;;0.60;0.60;;;47.20;36.00;;;;;;5114168;28;20325;-70
2022/08/14 15:20:27;;;;;;;0.50;0.50;;;46.70;37.00;;;;;;5113594;28;20196;-70
2022/08/14 15:23:17;;;;;;;0.50;0.50;;;45.60;37.10;;;;;;5113424;28;20215;-70
2022/08/14 15:26:11;;;;;;;0.50;0.50;;;43.80;37.00;;;;;;5113513;28;20741;-70
2022/08/14 15:29:13;;;;;;;0.50;0.50;;;42.60;38.20;;;;;;5113815;28;20256;-71
2022/08/14 15:32:03;;;;;;;0.50;0.50;;;43.20;38.30;;;;;;5114055;28;20231;-71
2022/08/14 15:34:56;;;;;;;0.50;0.50;;;45.00;35.90;;;;;;5113100;28;20290;-71